Time,TemperatureF,DewpointF,PressureIn,WindDirection,WindDirectionDegrees,WindSpeedMPH,WindSpeedGustMPH,Humidity,HourlyPrecipIn,Conditions,Clouds,dailyrainin,SoftwareType,DateUTC
2013-02-13 00:00:00,50.4,40.6,29.91,WSW,248,1.0,-999.0,69,0.00,,,0.03,Wunderground v.1.15,2013-02-13 05:00:00,
2013-02-13 00:05:00,50.4,40.6,29.91,WSW,248,1.0,-999.0,69,0.00,,,0.03,Wunderground v.1.15,2013-02-13 05:05:00,
2013-02-13 00:10:00,50.4,40.6,29.91,WSW,248,1.0,-999.0,69,0.00,,,0.03,Wunderground v.1.15,2013-02-13 05:10:00,
2013-02-13 00:15:00,50.4,40.6,29.91,WSW,248,1.0,-999.0,69,0.00,,,0.03,Wunderground v.1.15,2013-02-13 05:15:00,
2013-02-13 00:20:00,50.4,40.6,29.91,WSW,248,1.0,-999.0,69,0.00,,,0.03,Wunderground v.1.15,2013-02-13 05:20:00,
2013-02-13 00:25:00,50.4,40.6,29.91,WSW,248,1.0,-999.0,69,0.00,,,0.03,Wunderground v.1.15,2013-02-13 05:25:00,
2013-02-13 00:30:00,50.4,40.6,29.91,WSW,248,1.0,-999.0,69,0.00,,,0.03,Wunderground v.1.15,2013-02-13 05:30:00,
2013-02-13 00:35:00,50.4,40.6,29.91,WSW,248,1.0,-999.0,69,0.00,,,0.03,Wunderground v.1.15,2013-02-13 05:35:00,
2013-02-13 00:40:00,50.4,40.6,29.91,WSW,248,1.0,-999.0,69,0.00,,,0.03,Wunderground v.1.15,2013-02-13 05:40:00,
2013-02-13 00:45:00,49.8,39.3,29.89,NNE,23,1.0,-999.0,67,0.00,,,0.03,Wunderground v.1.15,2013-02-13 05:45:00,
2013-02-13 00:50:00,49.8,39.3,29.89,NNE,23,1.0,-999.0,67,0.00,,,0.03,Wunderground v.1.15,2013-02-13 05:50:00,
2013-02-13 00:55:00,49.8,39.3,29.89,NNE,23,1.0,-999.0,67,0.00,,,0.03,Wunderground v.1.15,2013-02-13 05:55:00,
2013-02-13 01:00:00,49.8,39.3,29.89,NNE,23,1.0,-999.0,67,0.00,,,0.03,Wunderground v.1.15,2013-02-13 06:00:00,
2013-02-13 01:05:00,49.8,39.3,29.89,NNE,23,1.0,-999.0,67,0.00,,,0.03,Wunderground v.1.15,2013-02-13 06:05:00,
2013-02-13 01:10:00,49.8,39.3,29.89,NNE,23,1.0,-999.0,67,0.00,,,0.03,Wunderground v.1.15,2013-02-13 06:10:00,
2013-02-13 01:15:00,49.2,39.1,29.88,NNE,23,1.0,-999.0,68,0.00,,,0.03,Wunderground v.1.15,2013-02-13 06:15:00,
2013-02-13 01:20:00,49.2,39.1,29.88,NNE,23,1.0,-999.0,68,0.00,,,0.03,Wunderground v.1.15,2013-02-13 06:20:00,
2013-02-13 01:25:00,49.2,39.1,29.88,NNE,23,1.0,-999.0,68,0.00,,,0.03,Wunderground v.1.15,2013-02-13 06:25:00,
2013-02-13 01:30:00,49.2,39.1,29.88,NNE,23,1.0,-999.0,68,0.00,,,0.03,Wunderground v.1.15,2013-02-13 06:30:00,
2013-02-13 01:35:00,49.2,39.1,29.88,NNE,23,1.0,-999.0,68,0.00,,,0.03,Wunderground v.1.15,2013-02-13 06:35:00,
2013-02-13 01:40:00,49.2,39.1,29.88,NNE,23,1.0,-999.0,68,0.00,,,0.03,Wunderground v.1.15,2013-02-13 06:40:00,
2013-02-13 01:45:00,48.3,39.7,29.89,NNE,23,1.0,-999.0,72,0.00,,,0.03,Wunderground v.1.15,2013-02-13 06:45:00,
2013-02-13 01:50:00,48.3,39.7,29.89,NNE,23,1.0,-999.0,72,0.00,,,0.03,Wunderground v.1.15,2013-02-13 06:50:00,
2013-02-13 01:55:00,48.3,39.7,29.89,NNE,23,1.0,-999.0,72,0.00,,,0.03,Wunderground v.1.15,2013-02-13 06:55:00,
2013-02-13 02:00:00,48.3,39.7,29.89,NNE,23,1.0,-999.0,72,0.00,,,0.03,Wunderground v.1.15,2013-02-13 07:00:00,
2013-02-13 02:05:00,48.3,39.7,29.89,NNE,23,1.0,-999.0,72,0.00,,,0.03,Wunderground v.1.15,2013-02-13 07:05:00,
2013-02-13 02:10:00,48.3,39.7,29.89,NNE,23,1.0,-999.0,72,0.00,,,0.03,Wunderground v.1.15,2013-02-13 07:10:00,
2013-02-13 02:15:00,46.2,41.0,29.85,NNE,23,1.0,-999.0,82,0.01,,,0.03,Wunderground v.1.15,2013-02-13 07:15:00,
2013-02-13 02:20:00,46.2,41.0,29.85,NNE,23,1.0,-999.0,82,0.01,,,0.03,Wunderground v.1.15,2013-02-13 07:20:00,
2013-02-13 02:25:00,46.2,41.0,29.85,NNE,23,1.0,-999.0,82,0.01,,,0.03,Wunderground v.1.15,2013-02-13 07:25:00,
2013-02-13 02:30:00,46.2,41.0,29.85,NNE,23,1.0,-999.0,82,0.01,,,0.03,Wunderground v.1.15,2013-02-13 07:30:00,
2013-02-13 02:35:00,46.2,41.0,29.85,NNE,23,1.0,-999.0,82,0.01,,,0.03,Wunderground v.1.15,2013-02-13 07:35:00,
2013-02-13 02:40:00,46.2,41.0,29.85,NNE,23,1.0,-999.0,82,0.01,,,0.03,Wunderground v.1.15,2013-02-13 07:40:00,
2013-02-13 02:45:00,45.5,41.3,29.86,NNE,23,0.0,-999.0,85,0.02,,,0.03,Wunderground v.1.15,2013-02-13 07:45:00,
2013-02-13 02:50:00,45.5,41.3,29.86,NNE,23,0.0,-999.0,85,0.02,,,0.03,Wunderground v.1.15,2013-02-13 07:50:00,
2013-02-13 02:55:00,45.5,41.3,29.86,NNE,23,0.0,-999.0,85,0.02,,,0.03,Wunderground v.1.15,2013-02-13 07:55:00,
2013-02-13 03:00:00,45.5,41.3,29.86,NNE,23,0.0,-999.0,85,0.02,,,0.03,Wunderground v.1.15,2013-02-13 08:00:00,
2013-02-13 03:05:00,45.5,41.3,29.86,NNE,23,0.0,-999.0,85,0.02,,,0.03,Wunderground v.1.15,2013-02-13 08:05:00,
2013-02-13 03:10:00,45.5,41.3,29.86,NNE,23,0.0,-999.0,85,0.02,,,0.03,Wunderground v.1.15,2013-02-13 08:10:00,
2013-02-13 03:15:00,45.0,41.4,29.85,NNE,23,0.0,-999.0,87,0.01,,,0.03,Wunderground v.1.15,2013-02-13 08:15:00,
2013-02-13 03:20:00,45.0,41.4,29.85,NNE,23,0.0,-999.0,87,0.01,,,0.03,Wunderground v.1.15,2013-02-13 08:20:00,
2013-02-13 03:25:00,45.0,41.4,29.85,NNE,23,0.0,-999.0,87,0.01,,,0.03,Wunderground v.1.15,2013-02-13 08:25:00,
2013-02-13 03:30:00,45.0,41.4,29.85,NNE,23,0.0,-999.0,87,0.01,,,0.03,Wunderground v.1.15,2013-02-13 08:30:00,
2013-02-13 03:35:00,45.0,41.4,29.85,NNE,23,0.0,-999.0,87,0.01,,,0.03,Wunderground v.1.15,2013-02-13 08:35:00,
2013-02-13 03:40:00,45.0,41.4,29.85,NNE,23,0.0,-999.0,87,0.01,,,0.03,Wunderground v.1.15,2013-02-13 08:40:00,
2013-02-13 03:45:00,44.7,41.4,29.84,NE,45,0.0,-999.0,88,0.00,,,0.03,Wunderground v.1.15,2013-02-13 08:45:00,
2013-02-13 03:50:00,44.7,41.4,29.84,NE,45,0.0,-999.0,88,0.00,,,0.03,Wunderground v.1.15,2013-02-13 08:50:00,
2013-02-13 03:55:00,44.7,41.4,29.84,NE,45,0.0,-999.0,88,0.00,,,0.03,Wunderground v.1.15,2013-02-13 08:55:00,
2013-02-13 04:00:00,44.7,41.4,29.84,NE,45,0.0,-999.0,88,0.00,,,0.03,Wunderground v.1.15,2013-02-13 09:00:00,
2013-02-13 04:05:00,44.7,41.4,29.84,NE,45,0.0,-999.0,88,0.00,,,0.03,Wunderground v.1.15,2013-02-13 09:05:00,
2013-02-13 04:10:00,44.7,41.4,29.84,NE,45,0.0,-999.0,88,0.00,,,0.03,Wunderground v.1.15,2013-02-13 09:10:00,
2013-02-13 04:15:00,44.5,41.5,29.83,NE,45,0.0,-999.0,89,0.00,,,0.03,Wunderground v.1.15,2013-02-13 09:15:00,
2013-02-13 04:20:00,44.5,41.5,29.83,NE,45,0.0,-999.0,89,0.00,,,0.03,Wunderground v.1.15,2013-02-13 09:20:00,
2013-02-13 04:25:00,44.5,41.5,29.83,NE,45,0.0,-999.0,89,0.00,,,0.03,Wunderground v.1.15,2013-02-13 09:25:00,
2013-02-13 04:30:00,44.5,41.5,29.83,NE,45,0.0,-999.0,89,0.00,,,0.03,Wunderground v.1.15,2013-02-13 09:30:00,
2013-02-13 04:35:00,44.5,41.5,29.83,NE,45,0.0,-999.0,89,0.00,,,0.03,Wunderground v.1.15,2013-02-13 09:35:00,
2013-02-13 04:40:00,44.5,41.5,29.83,NE,45,0.0,-999.0,89,0.00,,,0.03,Wunderground v.1.15,2013-02-13 09:40:00,
2013-02-13 04:45:00,44.3,41.6,29.82,NNE,23,0.0,-999.0,90,0.00,,,0.03,Wunderground v.1.15,2013-02-13 09:45:00,
2013-02-13 04:50:00,44.3,41.6,29.82,NNE,23,0.0,-999.0,90,0.00,,,0.03,Wunderground v.1.15,2013-02-13 09:50:00,
2013-02-13 04:55:00,44.3,41.6,29.82,NNE,23,0.0,-999.0,90,0.00,,,0.03,Wunderground v.1.15,2013-02-13 09:55:00,
2013-02-13 05:00:00,44.3,41.6,29.82,NNE,23,0.0,-999.0,90,0.00,,,0.03,Wunderground v.1.15,2013-02-13 10:00:00,
2013-02-13 05:05:00,44.3,41.6,29.82,NNE,23,0.0,-999.0,90,0.00,,,0.03,Wunderground v.1.15,2013-02-13 10:05:00,
2013-02-13 05:10:00,44.3,41.6,29.82,NNE,23,0.0,-999.0,90,0.00,,,0.03,Wunderground v.1.15,2013-02-13 10:10:00,
2013-02-13 05:15:00,44.3,41.6,29.82,NE,45,0.0,-999.0,90,0.00,,,0.03,Wunderground v.1.15,2013-02-13 10:15:00,
2013-02-13 05:20:00,44.3,41.6,29.82,NE,45,0.0,-999.0,90,0.00,,,0.03,Wunderground v.1.15,2013-02-13 10:20:00,
2013-02-13 05:25:00,44.3,41.6,29.82,NE,45,0.0,-999.0,90,0.00,,,0.03,Wunderground v.1.15,2013-02-13 10:25:00,
2013-02-13 05:30:00,44.3,41.6,29.82,NE,45,0.0,-999.0,90,0.00,,,0.03,Wunderground v.1.15,2013-02-13 10:30:00,
2013-02-13 05:35:00,44.3,41.6,29.82,NE,45,0.0,-999.0,90,0.00,,,0.03,Wunderground v.1.15,2013-02-13 10:35:00,
2013-02-13 05:40:00,44.3,41.6,29.82,NE,45,0.0,-999.0,90,0.00,,,0.03,Wunderground v.1.15,2013-02-13 10:40:00,
2013-02-13 05:45:00,44.3,41.6,29.81,NE,45,0.0,-999.0,90,0.00,,,0.03,Wunderground v.1.15,2013-02-13 10:45:00,
2013-02-13 05:50:00,44.3,41.6,29.81,NE,45,0.0,-999.0,90,0.00,,,0.03,Wunderground v.1.15,2013-02-13 10:50:00,
2013-02-13 05:55:00,44.3,41.6,29.81,NE,45,0.0,-999.0,90,0.00,,,0.03,Wunderground v.1.15,2013-02-13 10:55:00,
2013-02-13 06:00:00,44.3,41.6,29.81,NE,45,0.0,-999.0,90,0.00,,,0.03,Wunderground v.1.15,2013-02-13 11:00:00,
2013-02-13 06:05:00,44.3,41.6,29.81,NE,45,0.0,-999.0,90,0.00,,,0.03,Wunderground v.1.15,2013-02-13 11:05:00,
2013-02-13 06:10:00,44.3,41.6,29.81,NE,45,0.0,-999.0,90,0.00,,,0.03,Wunderground v.1.15,2013-02-13 11:10:00,
2013-02-13 06:15:00,44.1,41.4,29.82,NNE,23,0.0,-999.0,90,0.00,,,0.03,Wunderground v.1.15,2013-02-13 11:15:00,
2013-02-13 06:20:00,44.1,41.4,29.82,NNE,23,0.0,-999.0,90,0.00,,,0.03,Wunderground v.1.15,2013-02-13 11:20:00,
2013-02-13 06:25:00,44.1,41.4,29.82,NNE,23,0.0,-999.0,90,0.00,,,0.03,Wunderground v.1.15,2013-02-13 11:25:00,
2013-02-13 06:30:00,44.1,41.4,29.82,NNE,23,0.0,-999.0,90,0.00,,,0.03,Wunderground v.1.15,2013-02-13 11:30:00,
2013-02-13 06:35:00,44.1,41.4,29.82,NNE,23,0.0,-999.0,90,0.00,,,0.03,Wunderground v.1.15,2013-02-13 11:35:00,
2013-02-13 06:40:00,44.1,41.4,29.82,NNE,23,0.0,-999.0,90,0.00,,,0.03,Wunderground v.1.15,2013-02-13 11:40:00,
2013-02-13 06:45:00,44.1,41.6,29.81,North,0,0.0,-999.0,91,0.00,,,0.03,Wunderground v.1.15,2013-02-13 11:45:00,
2013-02-13 06:50:00,44.1,41.6,29.81,North,0,0.0,-999.0,91,0.00,,,0.03,Wunderground v.1.15,2013-02-13 11:50:00,
2013-02-13 06:55:00,44.1,41.6,29.81,North,0,0.0,-999.0,91,0.00,,,0.03,Wunderground v.1.15,2013-02-13 11:55:00,
2013-02-13 07:00:00,44.1,41.6,29.81,North,0,0.0,-999.0,91,0.00,,,0.03,Wunderground v.1.15,2013-02-13 12:00:00,
2013-02-13 07:05:00,44.1,41.6,29.81,North,0,0.0,-999.0,91,0.00,,,0.03,Wunderground v.1.15,2013-02-13 12:05:00,
2013-02-13 07:10:00,44.1,41.6,29.81,North,0,0.0,-999.0,91,0.00,,,0.03,Wunderground v.1.15,2013-02-13 12:10:00,
2013-02-13 07:15:00,44.0,41.8,29.80,NNE,23,0.0,-999.0,92,0.00,,,0.03,Wunderground v.1.15,2013-02-13 12:15:00,
2013-02-13 07:20:00,44.0,41.8,29.80,NNE,23,0.0,-999.0,92,0.00,,,0.03,Wunderground v.1.15,2013-02-13 12:20:00,
2013-02-13 07:25:00,44.0,41.8,29.80,NNE,23,0.0,-999.0,92,0.00,,,0.03,Wunderground v.1.15,2013-02-13 12:25:00,
2013-02-13 07:30:00,44.0,41.8,29.80,NNE,23,0.0,-999.0,92,0.00,,,0.03,Wunderground v.1.15,2013-02-13 12:30:00,
2013-02-13 07:35:00,44.0,41.8,29.80,NNE,23,0.0,-999.0,92,0.00,,,0.03,Wunderground v.1.15,2013-02-13 12:35:00,
2013-02-13 07:40:00,44.0,41.8,29.80,NNE,23,0.0,-999.0,92,0.00,,,0.03,Wunderground v.1.15,2013-02-13 12:40:00,
2013-02-13 07:45:00,44.1,41.9,29.79,NE,45,1.0,-999.0,92,0.00,,,0.03,Wunderground v.1.15,2013-02-13 12:45:00,
2013-02-13 07:50:00,44.1,41.9,29.79,NE,45,1.0,-999.0,92,0.00,,,0.03,Wunderground v.1.15,2013-02-13 12:50:00,
2013-02-13 07:55:00,44.1,41.9,29.79,NE,45,1.0,-999.0,92,0.00,,,0.03,Wunderground v.1.15,2013-02-13 12:55:00,
2013-02-13 08:00:00,44.1,41.9,29.79,NE,45,1.0,-999.0,92,0.00,,,0.03,Wunderground v.1.15,2013-02-13 13:00:00,
2013-02-13 08:05:00,44.1,41.9,29.79,NE,45,1.0,-999.0,92,0.00,,,0.03,Wunderground v.1.15,2013-02-13 13:05:00,
2013-02-13 08:10:00,44.1,41.9,29.79,NE,45,1.0,-999.0,92,0.00,,,0.03,Wunderground v.1.15,2013-02-13 13:10:00,
2013-02-13 08:15:00,44.4,42.2,29.80,ENE,68,0.0,-999.0,92,0.00,,,0.03,Wunderground v.1.15,2013-02-13 13:15:00,
2013-02-13 08:20:00,44.4,42.2,29.80,ENE,68,0.0,-999.0,92,0.00,,,0.03,Wunderground v.1.15,2013-02-13 13:20:00,
2013-02-13 08:25:00,44.4,42.2,29.80,ENE,68,0.0,-999.0,92,0.00,,,0.03,Wunderground v.1.15,2013-02-13 13:25:00,
2013-02-13 08:30:00,44.4,42.2,29.80,ENE,68,0.0,-999.0,92,0.00,,,0.03,Wunderground v.1.15,2013-02-13 13:30:00,
2013-02-13 08:35:00,44.4,42.2,29.80,ENE,68,0.0,-999.0,92,0.00,,,0.03,Wunderground v.1.15,2013-02-13 13:35:00,
2013-02-13 08:40:00,44.4,42.2,29.80,ENE,68,0.0,-999.0,92,0.00,,,0.03,Wunderground v.1.15,2013-02-13 13:40:00,
2013-02-13 08:45:00,44.5,42.3,29.78,NE,45,0.0,-999.0,92,0.01,,,0.03,Wunderground v.1.15,2013-02-13 13:45:00,
2013-02-13 08:50:00,44.5,42.3,29.78,NE,45,0.0,-999.0,92,0.01,,,0.03,Wunderground v.1.15,2013-02-13 13:50:00,
2013-02-13 08:55:00,44.5,42.3,29.78,NE,45,0.0,-999.0,92,0.01,,,0.03,Wunderground v.1.15,2013-02-13 13:55:00,
2013-02-13 09:09:00,44.5,42.3,29.78,NE,45,0.0,-999.0,92,0.01,,,0.03,Wunderground v.1.15,2013-02-13 14:09:00,
2013-02-13 09:15:00,44.6,42.4,29.78,NE,53,1.0,1.0,92,0.00,,,0.03,Wunderground v.1.15,2013-02-13 14:15:00,
2013-02-13 09:20:00,44.6,42.4,29.77,NE,54,0.0,0.0,92,0.00,,,0.03,Wunderground v.1.15,2013-02-13 14:20:00,
2013-02-13 09:25:00,44.6,42.7,29.77,NE,55,0.0,0.0,93,0.00,,,0.03,Wunderground v.1.15,2013-02-13 14:25:00,
2013-02-13 09:30:00,44.6,42.7,29.79,NE,53,0.0,0.0,93,0.00,,,0.03,Wunderground v.1.15,2013-02-13 14:30:00,
2013-02-13 09:35:00,44.6,42.7,29.80,NE,53,0.0,1.0,93,0.00,,,0.03,Wunderground v.1.15,2013-02-13 14:35:00,
2013-02-13 09:40:00,44.6,42.7,29.80,NE,53,0.0,0.0,93,0.00,,,0.03,Wunderground v.1.15,2013-02-13 14:40:00,
2013-02-13 09:45:00,44.7,42.5,29.80,NE,53,0.0,0.0,92,0.00,,,0.03,Wunderground v.1.15,2013-02-13 14:45:00,
2013-02-13 09:50:00,44.7,42.5,29.79,NE,53,0.0,0.0,92,0.00,,,0.03,Wunderground v.1.15,2013-02-13 14:50:00,
2013-02-13 09:55:00,44.7,42.8,29.78,NE,53,0.0,0.0,93,0.00,,,0.03,Wunderground v.1.15,2013-02-13 14:55:00,
2013-02-13 10:00:00,44.7,42.8,29.78,NE,53,0.0,1.0,93,0.00,,,0.03,Wunderground v.1.15,2013-02-13 15:00:00,
2013-02-13 10:05:00,44.8,42.9,29.78,NE,53,0.0,4.0,93,0.00,,,0.03,Wunderground v.1.15,2013-02-13 15:05:00,
2013-02-13 10:10:00,44.8,42.9,29.77,NE,55,0.0,4.0,93,0.00,,,0.03,Wunderground v.1.15,2013-02-13 15:10:00,
2013-02-13 10:15:00,44.8,42.9,29.77,NE,55,1.0,4.0,93,0.00,,,0.03,Wunderground v.1.15,2013-02-13 15:15:00,
2013-02-13 10:20:00,44.8,42.9,29.78,NE,55,0.0,4.0,93,0.00,,,0.03,Wunderground v.1.15,2013-02-13 15:20:00,
2013-02-13 10:25:00,44.9,43.0,29.78,NE,55,0.0,4.0,93,0.00,,,0.03,Wunderground v.1.15,2013-02-13 15:25:00,
2013-02-13 10:30:00,44.9,43.0,29.77,NE,55,0.0,4.0,93,0.00,,,0.03,Wunderground v.1.15,2013-02-13 15:30:00,
2013-02-13 10:35:00,45.0,43.1,29.76,NE,55,0.0,4.0,93,0.00,,,0.03,Wunderground v.1.15,2013-02-13 15:35:00,
2013-02-13 10:40:00,45.0,43.1,29.77,NE,55,0.0,4.0,93,0.00,,,0.03,Wunderground v.1.15,2013-02-13 15:40:00,
2013-02-13 10:45:00,45.0,43.1,29.77,NE,55,0.0,4.0,93,0.00,,,0.03,Wunderground v.1.15,2013-02-13 15:45:00,
2013-02-13 10:50:00,45.0,43.1,29.78,NE,55,0.0,4.0,93,0.00,,,0.04,Wunderground v.1.15,2013-02-13 15:50:00,
2013-02-13 10:55:00,44.9,43.0,29.77,NE,55,0.0,4.0,93,0.00,,,0.04,Wunderground v.1.15,2013-02-13 15:55:00,
2013-02-13 11:00:00,44.9,43.0,29.76,NE,55,0.0,4.0,93,0.00,,,0.04,Wunderground v.1.15,2013-02-13 16:00:00,
2013-02-13 11:05:00,45.0,43.1,29.76,NE,55,0.0,4.0,93,0.00,,,0.04,Wunderground v.1.15,2013-02-13 16:05:00,
2013-02-13 11:10:00,45.0,43.1,29.75,NE,55,0.0,4.0,93,0.00,,,0.04,Wunderground v.1.15,2013-02-13 16:10:00,
2013-02-13 11:15:00,45.2,43.6,29.74,NE,55,0.0,4.0,94,0.00,,,0.04,Wunderground v.1.15,2013-02-13 16:15:00,
2013-02-13 11:20:00,45.2,43.6,29.75,NE,55,0.0,4.0,94,0.00,,,0.04,Wunderground v.1.15,2013-02-13 16:20:00,
2013-02-13 11:25:00,45.3,43.4,29.75,NE,55,0.0,4.0,93,0.00,,,0.04,Wunderground v.1.15,2013-02-13 16:25:00,
2013-02-13 11:30:00,45.4,43.5,29.76,NE,55,0.0,4.0,93,0.00,,,0.04,Wunderground v.1.15,2013-02-13 16:30:00,
2013-02-13 11:35:00,45.4,43.5,29.75,NE,55,0.0,4.0,93,0.00,,,0.04,Wunderground v.1.15,2013-02-13 16:35:00,
2013-02-13 11:40:00,45.5,43.6,29.74,NE,55,0.0,4.0,93,0.00,,,0.04,Wunderground v.1.15,2013-02-13 16:40:00,
2013-02-13 11:45:00,45.6,43.7,29.71,East,88,0.0,4.0,93,0.00,,,0.04,Wunderground v.1.15,2013-02-13 16:45:00,
2013-02-13 11:50:00,45.6,43.7,29.72,East,98,0.0,4.0,93,0.00,,,0.04,Wunderground v.1.15,2013-02-13 16:50:00,
2013-02-13 11:55:00,45.6,43.7,29.74,NNE,19,0.0,4.0,93,0.00,,,0.04,Wunderground v.1.15,2013-02-13 16:55:00,
2013-02-13 12:00:00,45.5,43.6,29.73,NNE,20,0.0,4.0,93,0.00,,,0.04,Wunderground v.1.15,2013-02-13 17:00:00,
2013-02-13 12:05:00,45.5,43.6,29.72,NNE,20,0.0,4.0,93,0.00,,,0.04,Wunderground v.1.15,2013-02-13 17:05:00,
2013-02-13 12:10:00,45.6,43.7,29.73,NE,51,0.0,4.0,93,0.00,,,0.04,Wunderground v.1.15,2013-02-13 17:10:00,
2013-02-13 12:15:00,45.6,43.7,29.71,NE,51,0.0,4.0,93,0.00,,,0.04,Wunderground v.1.15,2013-02-13 17:15:00,
2013-02-13 12:20:00,45.6,43.7,29.71,NE,51,0.0,4.0,93,0.00,,,0.04,Wunderground v.1.15,2013-02-13 17:20:00,
2013-02-13 12:25:00,45.5,43.6,29.69,NE,51,0.0,4.0,93,0.00,,,0.04,Wunderground v.1.15,2013-02-13 17:25:00,
2013-02-13 12:30:00,45.6,44.0,29.69,ENE,63,0.0,4.0,94,0.00,,,0.04,Wunderground v.1.15,2013-02-13 17:30:00,
2013-02-13 12:35:00,45.7,43.8,29.70,ENE,63,0.0,4.0,93,0.00,,,0.04,Wunderground v.1.15,2013-02-13 17:35:00,
2013-02-13 12:40:00,45.7,43.8,29.72,ENE,63,0.0,4.0,93,0.00,,,0.04,Wunderground v.1.15,2013-02-13 17:40:00,
2013-02-13 12:50:00,45.6,43.7,29.69,ENE,63,0.0,4.0,93,0.00,,,0.04,Wunderground v.1.15,2013-02-13 17:50:00,
2013-02-13 12:55:00,45.7,44.1,29.68,ENE,63,0.0,4.0,94,0.00,,,0.04,Wunderground v.1.15,2013-02-13 17:55:00,
2013-02-13 13:00:00,45.8,44.2,29.69,ENE,63,0.0,4.0,94,0.00,,,0.04,Wunderground v.1.15,2013-02-13 18:00:00,
2013-02-13 13:05:00,45.9,44.3,29.68,ENE,63,0.0,4.0,94,0.00,,,0.04,Wunderground v.1.15,2013-02-13 18:05:00,
2013-02-13 13:10:00,45.8,43.9,29.67,ENE,63,0.0,4.0,93,0.00,,,0.04,Wunderground v.1.15,2013-02-13 18:10:00,
2013-02-13 13:15:00,45.9,44.3,29.67,ENE,63,0.0,4.0,94,0.00,,,0.04,Wunderground v.1.15,2013-02-13 18:15:00,
2013-02-13 13:20:00,46.0,44.1,29.67,ENE,63,0.0,4.0,93,0.00,,,0.04,Wunderground v.1.15,2013-02-13 18:20:00,
2013-02-13 13:25:00,46.0,44.1,29.67,ENE,63,1.0,4.0,93,0.00,,,0.04,Wunderground v.1.15,2013-02-13 18:25:00,
2013-02-13 13:30:00,46.1,44.2,29.67,ENE,63,0.0,4.0,93,0.00,,,0.04,Wunderground v.1.15,2013-02-13 18:30:00,
2013-02-13 13:35:00,46.0,44.1,29.67,ENE,63,0.0,4.0,93,0.00,,,0.04,Wunderground v.1.15,2013-02-13 18:35:00,
2013-02-13 13:40:00,46.0,44.4,29.67,ENE,63,0.0,4.0,94,0.00,,,0.04,Wunderground v.1.15,2013-02-13 18:40:00,
2013-02-13 13:45:00,45.9,44.0,29.67,ENE,63,0.0,4.0,93,0.00,,,0.04,Wunderground v.1.15,2013-02-13 18:45:00,
2013-02-13 13:50:00,45.8,44.2,29.67,WNW,291,1.0,1.0,94,0.00,,,0.04,Wunderground v.1.15,2013-02-13 18:50:00,
2013-02-13 13:55:00,45.8,44.2,29.67,WNW,291,0.0,4.0,94,0.00,,,0.04,Wunderground v.1.15,2013-02-13 18:55:00,
2013-02-13 14:00:00,45.9,44.3,29.67,WNW,291,0.0,4.0,94,0.00,,,0.04,Wunderground v.1.15,2013-02-13 19:00:00,
2013-02-13 14:05:00,45.9,44.3,29.67,WSW,252,1.0,4.0,94,0.00,,,0.04,Wunderground v.1.15,2013-02-13 19:05:00,
2013-02-13 14:10:00,45.9,44.3,29.66,WSW,252,1.0,1.0,94,0.00,,,0.04,Wunderground v.1.15,2013-02-13 19:10:00,
2013-02-13 14:15:00,46.0,44.4,29.67,WSW,252,0.0,4.0,94,0.00,,,0.04,Wunderground v.1.15,2013-02-13 19:15:00,
2013-02-13 14:20:00,46.1,44.5,29.67,WSW,252,1.0,4.0,94,0.00,,,0.04,Wunderground v.1.15,2013-02-13 19:20:00,
2013-02-13 14:25:00,46.2,44.6,29.67,WSW,252,1.0,4.0,94,0.00,,,0.04,Wunderground v.1.15,2013-02-13 19:25:00,
2013-02-13 14:30:00,46.5,44.9,29.67,WSW,244,1.0,1.0,94,0.00,,,0.04,Wunderground v.1.15,2013-02-13 19:30:00,
2013-02-13 14:35:00,46.6,45.0,29.67,South,188,1.0,2.0,94,0.00,,,0.04,Wunderground v.1.15,2013-02-13 19:35:00,
2013-02-13 14:40:00,46.6,45.0,29.67,WSW,244,1.0,5.0,94,0.00,,,0.04,Wunderground v.1.15,2013-02-13 19:40:00,
2013-02-13 14:45:00,46.5,44.9,29.67,SW,236,2.0,5.0,94,0.00,,,0.04,Wunderground v.1.15,2013-02-13 19:45:00,
2013-02-13 14:50:00,46.6,45.0,29.66,WSW,237,2.0,2.0,94,0.00,,,0.04,Wunderground v.1.15,2013-02-13 19:50:00,
2013-02-13 14:55:00,46.7,45.1,29.66,WSW,242,2.0,4.0,94,0.00,,,0.04,Wunderground v.1.15,2013-02-13 19:55:00,
2013-02-13 15:00:00,46.7,45.1,29.66,SW,234,2.0,4.0,94,0.00,,,0.04,Wunderground v.1.15,2013-02-13 20:00:00,
2013-02-13 15:05:00,46.7,45.1,29.66,WSW,238,3.0,4.0,94,0.00,,,0.04,Wunderground v.1.15,2013-02-13 20:05:00,
2013-02-13 15:10:00,46.8,45.4,29.67,SW,232,2.0,6.0,95,0.00,,,0.04,Wunderground v.1.15,2013-02-13 20:10:00,
2013-02-13 15:15:00,46.9,45.5,29.67,SSW,194,1.0,6.0,95,0.00,,,0.04,Wunderground v.1.15,2013-02-13 20:15:00,
2013-02-13 15:25:00,47.1,45.7,29.67,SSW,211,1.0,4.0,95,0.00,,,0.04,Wunderground v.1.15,2013-02-13 20:25:00,
2013-02-13 15:30:00,47.0,45.6,29.67,South,191,2.0,2.0,95,0.00,,,0.04,Wunderground v.1.15,2013-02-13 20:30:00,
2013-02-13 15:35:00,47.0,45.6,29.65,WSW,242,4.0,4.0,95,0.00,,,0.04,Wunderground v.1.15,2013-02-13 20:35:00,
2013-02-13 15:40:00,47.0,45.6,29.66,WSW,238,3.0,4.0,95,0.00,,,0.04,Wunderground v.1.15,2013-02-13 20:40:00,
2013-02-13 15:45:00,47.1,45.5,29.66,WSW,246,3.0,4.0,94,0.00,,,0.04,Wunderground v.1.15,2013-02-13 20:45:00,
2013-02-13 15:50:00,47.0,45.4,29.66,WSW,246,4.0,4.0,94,0.00,,,0.04,Wunderground v.1.15,2013-02-13 20:50:00,
2013-02-13 15:55:00,47.1,45.5,29.67,WSW,237,3.0,4.0,94,0.00,,,0.04,Wunderground v.1.15,2013-02-13 20:55:00,
2013-02-13 16:00:00,47.2,45.6,29.67,WSW,246,3.0,6.0,94,0.00,,,0.04,Wunderground v.1.15,2013-02-13 21:00:00,
2013-02-13 16:05:00,47.2,45.6,29.67,WSW,238,3.0,6.0,94,0.00,,,0.04,Wunderground v.1.15,2013-02-13 21:05:00,
2013-02-13 16:15:00,47.4,45.8,29.67,WSW,238,3.0,4.0,94,0.00,,,0.04,Wunderground v.1.15,2013-02-13 21:15:00,
2013-02-13 16:20:00,47.5,45.6,29.67,South,174,4.0,4.0,93,0.00,,,0.04,Wunderground v.1.15,2013-02-13 21:20:00,
2013-02-13 16:25:00,47.6,45.7,29.67,West,276,3.0,4.0,93,0.00,,,0.04,Wunderground v.1.15,2013-02-13 21:25:00,
2013-02-13 16:30:00,47.6,45.7,29.68,WSW,246,3.0,5.0,93,0.00,,,0.04,Wunderground v.1.15,2013-02-13 21:30:00,
2013-02-13 16:35:00,47.7,45.8,29.68,West,263,4.0,5.0,93,0.00,,,0.04,Wunderground v.1.15,2013-02-13 21:35:00,
2013-02-13 16:40:00,47.8,45.9,29.68,WSW,243,4.0,4.0,93,0.00,,,0.04,Wunderground v.1.15,2013-02-13 21:40:00,
2013-02-13 16:45:00,47.8,45.6,29.68,West,259,3.0,4.0,92,0.00,,,0.04,Wunderground v.1.15,2013-02-13 21:45:00,
2013-02-13 16:55:00,47.9,45.7,29.69,South,187,4.0,4.0,92,0.00,,,0.04,Wunderground v.1.15,2013-02-13 21:55:00,
2013-02-13 17:00:00,47.8,45.6,29.69,SW,221,3.0,3.0,92,0.00,,,0.04,Wunderground v.1.15,2013-02-13 22:00:00,
2013-02-13 17:05:00,47.9,45.7,29.68,SW,222,3.0,3.0,92,0.00,,,0.04,Wunderground v.1.15,2013-02-13 22:05:00,
2013-02-13 17:10:00,47.9,45.7,29.68,WSW,248,4.0,4.0,92,0.00,,,0.04,Wunderground v.1.15,2013-02-13 22:10:00,
2013-02-13 17:15:00,47.9,45.7,29.69,WSW,243,3.0,4.0,92,0.00,,,0.04,Wunderground v.1.15,2013-02-13 22:15:00,
2013-02-13 17:20:00,47.9,45.7,29.69,WSW,250,1.0,3.0,92,0.00,,,0.04,Wunderground v.1.15,2013-02-13 22:20:00,
2013-02-13 17:25:00,48.0,45.8,29.69,WSW,237,3.0,3.0,92,0.00,,,0.04,Wunderground v.1.15,2013-02-13 22:25:00,
2013-02-13 17:30:00,48.0,45.8,29.69,WSW,252,3.0,3.0,92,0.00,,,0.04,Wunderground v.1.15,2013-02-13 22:30:00,
2013-02-13 17:35:00,48.0,45.8,29.69,South,184,2.0,3.0,92,0.00,,,0.04,Wunderground v.1.15,2013-02-13 22:35:00,
2013-02-13 17:40:00,48.0,45.8,29.69,SW,220,2.0,2.0,92,0.00,,,0.04,Wunderground v.1.15,2013-02-13 22:40:00,
2013-02-13 17:45:00,48.0,45.8,29.70,SSW,207,2.0,2.0,92,0.00,,,0.04,Wunderground v.1.15,2013-02-13 22:45:00,
2013-02-13 17:50:00,48.0,45.8,29.70,WSW,251,2.0,4.0,92,0.00,,,0.04,Wunderground v.1.15,2013-02-13 22:50:00,
2013-02-13 17:55:00,47.9,45.7,29.70,South,182,2.0,4.0,92,0.00,,,0.04,Wunderground v.1.15,2013-02-13 22:55:00,
2013-02-13 18:00:00,47.8,45.6,29.70,SSW,194,2.0,2.0,92,0.00,,,0.04,Wunderground v.1.15,2013-02-13 23:00:00,
2013-02-13 18:05:00,47.7,45.5,29.71,SW,232,1.0,4.0,92,0.00,,,0.04,Wunderground v.1.15,2013-02-13 23:05:00,
2013-02-13 18:10:00,47.7,45.5,29.71,WSW,243,2.0,9.0,92,0.00,,,0.04,Wunderground v.1.15,2013-02-13 23:10:00,
2013-02-13 18:15:00,47.6,45.4,29.72,SW,233,3.0,9.0,92,0.00,,,0.04,Wunderground v.1.15,2013-02-13 23:15:00,
2013-02-13 18:20:00,47.6,45.4,29.72,SW,234,3.0,3.0,92,0.00,,,0.04,Wunderground v.1.15,2013-02-13 23:20:00,
2013-02-13 18:25:00,47.4,45.2,29.72,WSW,238,2.0,9.0,92,0.00,,,0.04,Wunderground v.1.15,2013-02-13 23:25:00,
2013-02-13 18:30:00,47.3,45.1,29.72,WSW,243,2.0,9.0,92,0.00,,,0.04,Wunderground v.1.15,2013-02-13 23:30:00,
2013-02-13 18:35:00,47.2,45.0,29.73,WSW,250,2.0,9.0,92,0.00,,,0.04,Wunderground v.1.15,2013-02-13 23:35:00,
2013-02-13 18:40:00,47.3,45.1,29.73,WSW,246,2.0,9.0,92,0.00,,,0.04,Wunderground v.1.15,2013-02-13 23:40:00,
2013-02-13 18:45:00,47.4,45.2,29.73,West,260,3.0,9.0,92,0.00,,,0.04,Wunderground v.1.15,2013-02-13 23:45:00,
2013-02-13 18:50:00,47.5,45.3,29.74,WSW,248,3.0,9.0,92,0.00,,,0.04,Wunderground v.1.15,2013-02-13 23:50:00,
2013-02-13 18:55:00,47.5,45.3,29.74,WSW,248,2.0,9.0,92,0.00,,,0.04,Wunderground v.1.15,2013-02-13 23:55:00,
2013-02-13 19:00:00,47.5,45.3,29.74,SW,236,2.0,9.0,92,0.00,,,0.04,Wunderground v.1.15,2013-02-14 00:00:00,
2013-02-13 19:05:00,47.6,45.4,29.75,WSW,244,2.0,9.0,92,0.00,,,0.04,Wunderground v.1.15,2013-02-14 00:05:00,
2013-02-13 19:10:00,47.5,45.3,29.75,WSW,254,2.0,9.0,92,0.00,,,0.04,Wunderground v.1.15,2013-02-14 00:10:00,
2013-02-13 19:15:00,47.5,45.3,29.75,SW,236,2.0,9.0,92,0.00,,,0.04,Wunderground v.1.15,2013-02-14 00:15:00,
2013-02-13 19:20:00,47.5,45.3,29.75,WSW,241,3.0,9.0,92,0.00,,,0.04,Wunderground v.1.15,2013-02-14 00:20:00,
2013-02-13 19:25:00,47.5,45.3,29.76,WSW,242,3.0,9.0,92,0.00,,,0.04,Wunderground v.1.15,2013-02-14 00:25:00,
2013-02-13 19:30:00,47.5,45.3,29.76,SW,232,2.0,2.0,92,0.00,,,0.04,Wunderground v.1.15,2013-02-14 00:30:00,
2013-02-13 19:35:00,47.4,45.2,29.76,WSW,254,2.0,3.0,92,0.00,,,0.04,Wunderground v.1.15,2013-02-14 00:35:00,
2013-02-13 19:40:00,47.4,45.2,29.77,WSW,249,2.0,9.0,92,0.00,,,0.04,Wunderground v.1.15,2013-02-14 00:40:00,
2013-02-13 19:45:00,47.5,45.3,29.77,WSW,250,2.0,9.0,92,0.00,,,0.04,Wunderground v.1.15,2013-02-14 00:45:00,
2013-02-13 19:50:00,47.6,45.4,29.77,WSW,245,2.0,9.0,92,0.00,,,0.04,Wunderground v.1.15,2013-02-14 00:50:00,
2013-02-13 19:55:00,47.6,45.4,29.77,WSW,245,2.0,9.0,92,0.00,,,0.04,Wunderground v.1.15,2013-02-14 00:55:00,
2013-02-13 20:00:00,47.5,45.3,29.77,WSW,250,2.0,2.0,92,0.00,,,0.04,Wunderground v.1.15,2013-02-14 01:00:00,
2013-02-13 20:05:00,47.3,44.8,29.78,WSW,250,1.0,9.0,91,0.00,,,0.04,Wunderground v.1.15,2013-02-14 01:05:00,
2013-02-13 20:10:00,47.1,44.6,29.78,WSW,250,0.0,9.0,91,0.00,,,0.04,Wunderground v.1.15,2013-02-14 01:10:00,
2013-02-13 20:15:00,46.9,44.4,29.79,WSW,248,0.0,9.0,91,0.00,,,0.04,Wunderground v.1.15,2013-02-14 01:15:00,
2013-02-13 20:20:00,46.6,44.4,29.79,WSW,252,1.0,1.0,92,0.00,,,0.04,Wunderground v.1.15,2013-02-14 01:20:00,
2013-02-13 20:25:00,46.5,44.3,29.78,WSW,238,1.0,2.0,92,0.00,,,0.04,Wunderground v.1.15,2013-02-14 01:25:00,
2013-02-13 20:30:00,46.4,43.9,29.78,SSW,193,2.0,2.0,91,0.00,,,0.04,Wunderground v.1.15,2013-02-14 01:30:00,
2013-02-13 20:40:00,46.1,43.3,29.79,SSW,208,2.0,9.0,90,0.00,,,0.04,Wunderground v.1.15,2013-02-14 01:40:00,
2013-02-13 20:45:00,46.0,42.9,29.79,SSW,200,2.0,9.0,89,0.00,,,0.04,Wunderground v.1.15,2013-02-14 01:45:00,
2013-02-13 20:50:00,45.8,42.4,29.80,SW,232,2.0,2.0,88,0.00,,,0.04,Wunderground v.1.15,2013-02-14 01:50:00,
2013-02-13 20:55:00,45.7,42.1,29.80,SW,227,1.0,3.0,87,0.00,,,0.04,Wunderground v.1.15,2013-02-14 01:55:00,
2013-02-13 21:00:00,45.6,41.7,29.80,West,262,2.0,2.0,86,0.00,,,0.04,Wunderground v.1.15,2013-02-14 02:00:00,
2013-02-13 21:05:00,45.4,41.2,29.80,WSW,244,2.0,9.0,85,0.00,,,0.04,Wunderground v.1.15,2013-02-14 02:05:00,
2013-02-13 21:10:00,45.3,40.7,29.81,SW,226,1.0,9.0,84,0.00,,,0.04,Wunderground v.1.15,2013-02-14 02:10:00,
2013-02-13 21:15:00,45.2,40.7,29.81,SSE,148,1.0,9.0,84,0.00,,,0.04,Wunderground v.1.15,2013-02-14 02:15:00,
2013-02-13 21:20:00,45.0,40.1,29.81,ESE,121,1.0,1.0,83,0.00,,,0.04,Wunderground v.1.15,2013-02-14 02:20:00,
2013-02-13 21:25:00,44.9,40.0,29.81,SSE,159,0.0,9.0,83,0.00,,,0.04,Wunderground v.1.15,2013-02-14 02:25:00,
2013-02-13 21:30:00,44.7,39.9,29.81,South,189,0.0,9.0,83,0.00,,,0.04,Wunderground v.1.15,2013-02-14 02:30:00,
2013-02-13 21:35:00,44.6,39.8,29.81,SW,221,1.0,9.0,83,0.00,,,0.04,Wunderground v.1.15,2013-02-14 02:35:00,
2013-02-13 21:40:00,44.5,40.0,29.82,SW,234,0.0,9.0,84,0.00,,,0.04,Wunderground v.1.15,2013-02-14 02:40:00,
2013-02-13 21:45:00,44.3,39.2,29.82,South,172,1.0,9.0,82,0.00,,,0.04,Wunderground v.1.15,2013-02-14 02:45:00,
2013-02-13 21:50:00,44.3,39.2,29.82,East,96,1.0,9.0,82,0.00,,,0.04,Wunderground v.1.15,2013-02-14 02:50:00,
2013-02-13 21:55:00,44.3,38.8,29.83,South,171,1.0,9.0,81,0.00,,,0.04,Wunderground v.1.15,2013-02-14 02:55:00,
2013-02-13 22:05:00,44.0,38.5,29.83,WSW,245,1.0,5.0,81,0.00,,,0.04,Wunderground v.1.15,2013-02-14 03:05:00,
2013-02-13 22:10:00,44.0,38.2,29.83,ESE,118,1.0,1.0,80,0.00,,,0.04,Wunderground v.1.15,2013-02-14 03:10:00,
2013-02-13 22:15:00,43.8,38.0,29.83,NE,51,1.0,9.0,80,0.00,,,0.04,Wunderground v.1.15,2013-02-14 03:15:00,
2013-02-13 22:20:00,43.8,37.7,29.84,NNW,336,1.0,9.0,79,0.00,,,0.04,Wunderground v.1.15,2013-02-14 03:20:00,
2013-02-13 22:25:00,43.7,37.6,29.84,SW,231,1.0,9.0,79,0.00,,,0.04,Wunderground v.1.15,2013-02-14 03:25:00,
2013-02-13 22:30:00,43.6,37.2,29.84,NE,56,1.0,9.0,78,0.00,,,0.04,Wunderground v.1.15,2013-02-14 03:30:00,
2013-02-13 22:35:00,43.6,37.2,29.84,East,98,1.0,9.0,78,0.00,,,0.04,Wunderground v.1.15,2013-02-14 03:35:00,
2013-02-13 22:40:00,43.5,37.1,29.85,West,273,1.0,9.0,78,0.00,,,0.04,Wunderground v.1.15,2013-02-14 03:40:00,
2013-02-13 22:45:00,43.4,37.0,29.85,SSW,200,1.0,9.0,78,0.00,,,0.04,Wunderground v.1.15,2013-02-14 03:45:00,
2013-02-13 22:50:00,43.3,36.6,29.85,South,169,1.0,1.0,77,0.00,,,0.04,Wunderground v.1.15,2013-02-14 03:50:00,
2013-02-13 22:55:00,43.2,36.8,29.85,NNE,21,1.0,9.0,78,0.00,,,0.04,Wunderground v.1.15,2013-02-14 03:55:00,
2013-02-13 23:00:00,43.0,36.6,29.85,SE,131,0.0,9.0,78,0.00,,,0.04,Wunderground v.1.15,2013-02-14 04:00:00,
2013-02-13 23:05:00,43.0,36.6,29.85,ESE,113,1.0,-999.0,78,0.00,,,0.04,Wunderground v.1.15,2013-02-14 04:05:00,
2013-02-13 23:10:00,43.0,36.6,29.85,ESE,113,1.0,-999.0,78,0.00,,,0.04,Wunderground v.1.15,2013-02-14 04:10:00,
2013-02-13 23:15:00,42.1,35.7,29.86,North,0,0.0,-999.0,78,0.00,,,0.04,Wunderground v.1.15,2013-02-14 04:15:00,
2013-02-13 23:20:00,42.1,35.7,29.86,North,0,0.0,-999.0,78,0.00,,,0.04,Wunderground v.1.15,2013-02-14 04:20:00,
2013-02-13 23:25:00,42.1,35.7,29.86,North,0,0.0,-999.0,78,0.00,,,0.04,Wunderground v.1.15,2013-02-14 04:25:00,
2013-02-13 23:30:00,42.1,35.7,29.86,North,0,0.0,-999.0,78,0.00,,,0.04,Wunderground v.1.15,2013-02-14 04:30:00,
2013-02-13 23:35:00,42.1,35.7,29.86,North,0,0.0,-999.0,78,0.00,,,0.04,Wunderground v.1.15,2013-02-14 04:35:00,
2013-02-13 23:40:00,42.1,35.7,29.86,North,0,0.0,-999.0,78,0.00,,,0.04,Wunderground v.1.15,2013-02-14 04:40:00,
2013-02-13 23:45:00,41.5,35.2,29.87,East,90,0.0,-999.0,78,0.00,,,0.04,Wunderground v.1.15,2013-02-14 04:45:00,
2013-02-13 23:50:00,41.5,35.2,29.87,East,90,0.0,-999.0,78,0.00,,,0.04,Wunderground v.1.15,2013-02-14 04:50:00,
2013-02-13 23:55:00,41.5,35.2,29.87,East,90,0.0,-999.0,78,0.00,,,0.04,Wunderground v.1.15,2013-02-14 04:55:00,